sensor_id;sensor_type;location;lat;lon;timestamp;P1;durP1;ratioP1;P2;durP2;ratioP2
33844;SDS011;20145;43.118;25.694;2023-06-22T00:01:48;15.52;;;13.77;;
33844;SDS011;20145;43.118;25.694;2023-06-22T00:04:13;16.88;;;14.30;;
33844;SDS011;20145;43.118;25.694;2023-06-22T00:06:39;15.52;;;13.95;;
33844;SDS011;20145;43.118;25.694;2023-06-22T00:09:04;15.40;;;13.98;;
33844;SDS011;20145;43.118;25.694;2023-06-22T00:11:32;15.30;;;13.90;;
33844;SDS011;20145;43.118;25.694;2023-06-22T00:13:58;17.35;;;14.48;;
33844;SDS011;20145;43.118;25.694;2023-06-22T00:16:24;16.30;;;14.90;;
33844;SDS011;20145;43.118;25.694;2023-06-22T00:18:50;15.23;;;13.93;;
33844;SDS011;20145;43.118;25.694;2023-06-22T00:21:16;16.33;;;14.73;;
33844;SDS011;20145;43.118;25.694;2023-06-22T00:23:41;14.98;;;13.48;;
33844;SDS011;20145;43.118;25.694;2023-06-22T00:26:08;15.38;;;13.98;;
33844;SDS011;20145;43.118;25.694;2023-06-22T00:28:33;15.50;;;14.13;;
33844;SDS011;20145;43.118;25.694;2023-06-22T00:30:59;14.88;;;13.15;;
33844;SDS011;20145;43.118;25.694;2023-06-22T00:33:25;15.25;;;13.82;;
33844;SDS011;20145;43.118;25.694;2023-06-22T00:35:51;15.25;;;13.75;;
33844;SDS011;20145;43.118;25.694;2023-06-22T00:38:18;16.38;;;14.77;;
33844;SDS011;20145;43.118;25.694;2023-06-22T00:40:44;14.35;;;12.85;;
33844;SDS011;20145;43.118;25.694;2023-06-22T00:43:10;15.00;;;13.50;;
33844;SDS011;20145;43.118;25.694;2023-06-22T00:45:35;14.45;;;13.25;;
33844;SDS011;20145;43.118;25.694;2023-06-22T00:48:01;15.18;;;13.52;;
33844;SDS011;20145;43.118;25.694;2023-06-22T00:50:32;14.55;;;13.02;;
33844;SDS011;20145;43.118;25.694;2023-06-22T00:52:59;13.47;;;12.03;;
33844;SDS011;20145;43.118;25.694;2023-06-22T00:55:29;16.08;;;12.68;;
33844;SDS011;20145;43.118;25.694;2023-06-22T00:57:55;14.18;;;12.88;;
33844;SDS011;20145;43.118;25.694;2023-06-22T01:00:24;14.43;;;11.88;;
33844;SDS011;20145;43.118;25.694;2023-06-22T01:02:51;12.68;;;11.48;;
33844;SDS011;20145;43.118;25.694;2023-06-22T01:05:20;13.07;;;11.77;;
33844;SDS011;20145;43.118;25.694;2023-06-22T01:10:40;13.10;;;11.90;;
33844;SDS011;20145;43.118;25.694;2023-06-22T01:16:00;17.33;;;12.15;;
33844;SDS011;20145;43.118;25.694;2023-06-22T01:18:55;15.45;;;12.90;;
33844;SDS011;20145;43.118;25.694;2023-06-22T01:21:26;14.53;;;13.13;;
33844;SDS011;20145;43.118;25.694;2023-06-22T01:30:00;13.85;;;11.95;;
33844;SDS011;20145;43.118;25.694;2023-06-22T01:32:31;18.33;;;13.27;;
33844;SDS011;20145;43.118;25.694;2023-06-22T01:34:59;19.80;;;12.57;;
33844;SDS011;20145;43.118;25.694;2023-06-22T01:37:26;13.00;;;11.80;;
33844;SDS011;20145;43.118;25.694;2023-06-22T01:39:53;14.02;;;12.43;;
33844;SDS011;20145;43.118;25.694;2023-06-22T01:42:21;13.25;;;12.15;;
33844;SDS011;20145;43.118;25.694;2023-06-22T01:44:49;15.35;;;12.82;;
33844;SDS011;20145;43.118;25.694;2023-06-22T01:47:15;14.20;;;12.32;;
33844;SDS011;20145;43.118;25.694;2023-06-22T01:49:41;13.18;;;11.95;;
33844;SDS011;20145;43.118;25.694;2023-06-22T01:52:07;15.20;;;11.52;;
33844;SDS011;20145;43.118;25.694;2023-06-22T01:54:32;12.80;;;11.60;;
33844;SDS011;20145;43.118;25.694;2023-06-22T01:56:58;12.95;;;11.52;;
33844;SDS011;20145;43.118;25.694;2023-06-22T02:02:01;13.82;;;12.27;;
33844;SDS011;20145;43.118;25.694;2023-06-22T02:04:33;13.25;;;11.98;;
33844;SDS011;20145;43.118;25.694;2023-06-22T02:07:04;13.13;;;11.35;;
33844;SDS011;20145;43.118;25.694;2023-06-22T02:09:34;11.75;;;10.57;;
33844;SDS011;20145;43.118;25.694;2023-06-22T02:12:02;14.25;;;11.73;;
33844;SDS011;20145;43.118;25.694;2023-06-22T02:14:30;12.80;;;11.35;;
33844;SDS011;20145;43.118;25.694;2023-06-22T02:16:55;12.90;;;11.40;;
33844;SDS011;20145;43.118;25.694;2023-06-22T02:19:24;13.15;;;11.00;;
33844;SDS011;20145;43.118;25.694;2023-06-22T02:21:50;13.88;;;10.75;;
33844;SDS011;20145;43.118;25.694;2023-06-22T02:24:18;14.65;;;11.75;;
33844;SDS011;20145;43.118;25.694;2023-06-22T02:26:43;16.65;;;12.90;;
33844;SDS011;20145;43.118;25.694;2023-06-22T02:29:10;16.02;;;13.02;;
33844;SDS011;20145;43.118;25.694;2023-06-22T02:31:36;14.63;;;12.65;;
33844;SDS011;20145;43.118;25.694;2023-06-22T02:34:02;13.40;;;11.25;;
33844;SDS011;20145;43.118;25.694;2023-06-22T02:36:27;14.57;;;12.15;;
33844;SDS011;20145;43.118;25.694;2023-06-22T02:38:55;15.75;;;12.05;;
33844;SDS011;20145;43.118;25.694;2023-06-22T02:41:23;14.35;;;11.90;;
33844;SDS011;20145;43.118;25.694;2023-06-22T02:43:49;17.77;;;12.38;;
33844;SDS011;20145;43.118;25.694;2023-06-22T02:46:15;16.88;;;12.32;;
33844;SDS011;20145;43.118;25.694;2023-06-22T02:48:40;12.25;;;11.02;;
33844;SDS011;20145;43.118;25.694;2023-06-22T02:51:06;13.45;;;11.15;;
33844;SDS011;20145;43.118;25.694;2023-06-22T02:53:32;15.50;;;11.70;;
33844;SDS011;20145;43.118;25.694;2023-06-22T02:55:58;24.17;;;13.52;;
33844;SDS011;20145;43.118;25.694;2023-06-22T02:58:23;14.68;;;12.32;;
33844;SDS011;20145;43.118;25.694;2023-06-22T03:00:50;17.80;;;13.05;;
33844;SDS011;20145;43.118;25.694;2023-06-22T03:03:19;18.35;;;12.35;;
33844;SDS011;20145;43.118;25.694;2023-06-22T03:05:45;14.77;;;13.40;;
33844;SDS011;20145;43.118;25.694;2023-06-22T03:08:10;14.35;;;12.48;;
33844;SDS011;20145;43.118;25.694;2023-06-22T03:10:36;14.27;;;12.93;;
33844;SDS011;20145;43.118;25.694;2023-06-22T03:13:02;17.65;;;13.63;;
33844;SDS011;20145;43.118;25.694;2023-06-22T03:15:28;15.05;;;12.65;;
33844;SDS011;20145;43.118;25.694;2023-06-22T03:17:54;14.82;;;12.77;;
33844;SDS011;20145;43.118;25.694;2023-06-22T03:20:20;14.27;;;12.68;;
33844;SDS011;20145;43.118;25.694;2023-06-22T03:22:46;14.45;;;13.10;;
33844;SDS011;20145;43.118;25.694;2023-06-22T03:25:13;14.73;;;12.93;;
33844;SDS011;20145;43.118;25.694;2023-06-22T03:27:40;15.85;;;12.55;;
33844;SDS011;20145;43.118;25.694;2023-06-22T03:30:06;12.20;;;11.05;;
33844;SDS011;20145;43.118;25.694;2023-06-22T03:32:33;15.27;;;11.80;;
33844;SDS011;20145;43.118;25.694;2023-06-22T03:34:59;13.80;;;12.25;;
33844;SDS011;20145;43.118;25.694;2023-06-22T03:37:25;13.88;;;12.10;;
33844;SDS011;20145;43.118;25.694;2023-06-22T03:39:52;22.13;;;12.23;;
33844;SDS011;20145;43.118;25.694;2023-06-22T03:42:18;16.30;;;11.85;;
33844;SDS011;20145;43.118;25.694;2023-06-22T03:44:43;14.38;;;12.70;;
33844;SDS011;20145;43.118;25.694;2023-06-22T03:47:09;15.48;;;12.35;;
33844;SDS011;20145;43.118;25.694;2023-06-22T03:49:35;13.25;;;11.82;;
33844;SDS011;20145;43.118;25.694;2023-06-22T03:52:01;14.48;;;11.82;;
33844;SDS011;20145;43.118;25.694;2023-06-22T03:54:28;19.20;;;14.20;;
33844;SDS011;20145;43.118;25.694;2023-06-22T03:56:54;15.52;;;11.77;;
33844;SDS011;20145;43.118;25.694;2023-06-22T03:59:21;14.93;;;11.07;;
33844;SDS011;20145;43.118;25.694;2023-06-22T04:01:47;16.52;;;11.18;;
33844;SDS011;20145;43.118;25.694;2023-06-22T04:04:12;15.85;;;13.25;;
33844;SDS011;20145;43.118;25.694;2023-06-22T04:06:38;19.05;;;11.40;;
33844;SDS011;20145;43.118;25.694;2023-06-22T04:09:05;13.27;;;10.93;;
33844;SDS011;20145;43.118;25.694;2023-06-22T04:11:33;11.85;;;9.90;;
33844;SDS011;20145;43.118;25.694;2023-06-22T04:13:58;13.60;;;10.27;;
33844;SDS011;20145;43.118;25.694;2023-06-22T04:16:27;14.73;;;10.05;;
33844;SDS011;20145;43.118;25.694;2023-06-22T04:18:52;13.23;;;10.05;;
33844;SDS011;20145;43.118;25.694;2023-06-22T04:21:18;10.63;;;9.52;;
33844;SDS011;20145;43.118;25.694;2023-06-22T04:23:45;11.60;;;9.07;;
33844;SDS011;20145;43.118;25.694;2023-06-22T04:26:11;10.07;;;8.85;;
33844;SDS011;20145;43.118;25.694;2023-06-22T04:28:37;11.00;;;8.70;;
33844;SDS011;20145;43.118;25.694;2023-06-22T04:31:02;11.55;;;9.30;;
33844;SDS011;20145;43.118;25.694;2023-06-22T04:33:28;11.27;;;9.48;;
33844;SDS011;20145;43.118;25.694;2023-06-22T04:35:54;10.07;;;7.70;;
33844;SDS011;20145;43.118;25.694;2023-06-22T04:38:22;9.45;;;8.20;;
33844;SDS011;20145;43.118;25.694;2023-06-22T04:40:48;12.73;;;9.80;;
33844;SDS011;20145;43.118;25.694;2023-06-22T04:43:14;15.05;;;10.77;;
33844;SDS011;20145;43.118;25.694;2023-06-22T04:45:39;20.88;;;12.10;;
33844;SDS011;20145;43.118;25.694;2023-06-22T04:48:05;23.67;;;14.25;;
33844;SDS011;20145;43.118;25.694;2023-06-22T04:50:31;22.30;;;15.27;;
33844;SDS011;20145;43.118;25.694;2023-06-22T04:52:57;16.27;;;13.80;;
33844;SDS011;20145;43.118;25.694;2023-06-22T04:55:23;16.10;;;13.60;;
33844;SDS011;20145;43.118;25.694;2023-06-22T04:57:50;14.60;;;13.05;;
33844;SDS011;20145;43.118;25.694;2023-06-22T05:00:17;16.08;;;13.65;;
33844;SDS011;20145;43.118;25.694;2023-06-22T05:02:45;18.92;;;14.40;;
33844;SDS011;20145;43.118;25.694;2023-06-22T05:05:12;14.63;;;13.23;;
33844;SDS011;20145;43.118;25.694;2023-06-22T05:07:42;15.93;;;13.00;;
33844;SDS011;20145;43.118;25.694;2023-06-22T05:10:09;14.77;;;13.38;;
33844;SDS011;20145;43.118;25.694;2023-06-22T05:12:37;14.60;;;13.25;;
33844;SDS011;20145;43.118;25.694;2023-06-22T05:15:04;14.52;;;13.02;;
33844;SDS011;20145;43.118;25.694;2023-06-22T05:17:30;15.18;;;13.57;;
33844;SDS011;20145;43.118;25.694;2023-06-22T05:19:56;17.70;;;12.43;;
33844;SDS011;20145;43.118;25.694;2023-06-22T05:22:22;20.20;;;12.35;;
33844;SDS011;20145;43.118;25.694;2023-06-22T05:24:47;12.45;;;11.30;;
33844;SDS011;20145;43.118;25.694;2023-06-22T05:27:13;13.98;;;12.00;;
33844;SDS011;20145;43.118;25.694;2023-06-22T05:29:39;13.15;;;11.85;;
33844;SDS011;20145;43.118;25.694;2023-06-22T05:32:05;14.65;;;11.95;;
33844;SDS011;20145;43.118;25.694;2023-06-22T05:34:31;14.15;;;12.20;;
33844;SDS011;20145;43.118;25.694;2023-06-22T05:36:57;16.30;;;12.68;;
33844;SDS011;20145;43.118;25.694;2023-06-22T05:39:23;15.18;;;12.68;;
33844;SDS011;20145;43.118;25.694;2023-06-22T05:41:49;17.92;;;14.77;;
33844;SDS011;20145;43.118;25.694;2023-06-22T05:44:15;20.27;;;18.13;;
33844;SDS011;20145;43.118;25.694;2023-06-22T05:46:41;20.40;;;16.05;;
33844;SDS011;20145;43.118;25.694;2023-06-22T05:51:37;19.00;;;16.75;;
33844;SDS011;20145;43.118;25.694;2023-06-22T05:54:03;16.35;;;14.82;;
33844;SDS011;20145;43.118;25.694;2023-06-22T05:56:28;15.45;;;13.88;;
33844;SDS011;20145;43.118;25.694;2023-06-22T05:58:54;13.68;;;11.80;;
33844;SDS011;20145;43.118;25.694;2023-06-22T06:01:19;15.75;;;12.70;;
33844;SDS011;20145;43.118;25.694;2023-06-22T06:03:45;13.45;;;12.05;;
33844;SDS011;20145;43.118;25.694;2023-06-22T06:06:11;18.17;;;11.63;;
33844;SDS011;20145;43.118;25.694;2023-06-22T06:08:37;12.02;;;10.82;;
33844;SDS011;20145;43.118;25.694;2023-06-22T06:11:03;13.13;;;11.45;;
33844;SDS011;20145;43.118;25.694;2023-06-22T06:13:29;13.57;;;12.18;;
33844;SDS011;20145;43.118;25.694;2023-06-22T06:15:55;13.45;;;12.15;;
33844;SDS011;20145;43.118;25.694;2023-06-22T06:18:21;13.13;;;11.82;;
33844;SDS011;20145;43.118;25.694;2023-06-22T06:20:47;12.82;;;11.50;;
33844;SDS011;20145;43.118;25.694;2023-06-22T06:23:12;12.38;;;11.07;;
33844;SDS011;20145;43.118;25.694;2023-06-22T06:25:38;13.25;;;11.85;;
33844;SDS011;20145;43.118;25.694;2023-06-22T06:28:03;19.67;;;11.50;;
33844;SDS011;20145;43.118;25.694;2023-06-22T06:30:30;12.98;;;11.38;;
33844;SDS011;20145;43.118;25.694;2023-06-22T06:32:55;14.93;;;11.98;;
33844;SDS011;20145;43.118;25.694;2023-06-22T06:35:21;15.15;;;11.95;;
33844;SDS011;20145;43.118;25.694;2023-06-22T06:37:47;12.48;;;11.38;;
33844;SDS011;20145;43.118;25.694;2023-06-22T06:40:14;12.38;;;10.93;;
33844;SDS011;20145;43.118;25.694;2023-06-22T06:42:41;11.18;;;10.18;;
33844;SDS011;20145;43.118;25.694;2023-06-22T06:45:12;12.13;;;10.85;;
33844;SDS011;20145;43.118;25.694;2023-06-22T06:47:40;11.43;;;9.85;;
33844;SDS011;20145;43.118;25.694;2023-06-22T06:50:06;17.75;;;10.65;;
33844;SDS011;20145;43.118;25.694;2023-06-22T06:52:32;13.68;;;10.95;;
33844;SDS011;20145;43.118;25.694;2023-06-22T06:54:58;13.30;;;11.10;;
33844;SDS011;20145;43.118;25.694;2023-06-22T06:57:24;11.07;;;9.77;;
33844;SDS011;20145;43.118;25.694;2023-06-22T06:59:54;11.85;;;10.57;;
33844;SDS011;20145;43.118;25.694;2023-06-22T07:02:21;11.43;;;10.38;;
33844;SDS011;20145;43.118;25.694;2023-06-22T07:04:47;11.02;;;9.85;;
33844;SDS011;20145;43.118;25.694;2023-06-22T07:07:13;19.52;;;10.48;;
33844;SDS011;20145;43.118;25.694;2023-06-22T07:09:38;12.20;;;10.38;;
33844;SDS011;20145;43.118;25.694;2023-06-22T07:12:04;11.55;;;9.50;;
33844;SDS011;20145;43.118;25.694;2023-06-22T07:14:30;10.70;;;9.65;;
33844;SDS011;20145;43.118;25.694;2023-06-22T07:16:57;10.05;;;9.05;;
33844;SDS011;20145;43.118;25.694;2023-06-22T07:19:26;11.02;;;10.02;;
33844;SDS011;20145;43.118;25.694;2023-06-22T07:21:53;11.65;;;8.32;;
33844;SDS011;20145;43.118;25.694;2023-06-22T07:24:22;13.43;;;10.18;;
33844;SDS011;20145;43.118;25.694;2023-06-22T07:26:48;10.57;;;9.68;;
33844;SDS011;20145;43.118;25.694;2023-06-22T07:29:18;11.02;;;8.68;;
33844;SDS011;20145;43.118;25.694;2023-06-22T07:31:46;10.18;;;8.50;;
33844;SDS011;20145;43.118;25.694;2023-06-22T07:34:12;9.85;;;8.48;;
33844;SDS011;20145;43.118;25.694;2023-06-22T07:36:38;10.32;;;7.95;;
33844;SDS011;20145;43.118;25.694;2023-06-22T07:39:04;7.70;;;6.95;;
33844;SDS011;20145;43.118;25.694;2023-06-22T07:41:30;7.07;;;6.38;;
33844;SDS011;20145;43.118;25.694;2023-06-22T07:43:56;9.32;;;7.55;;
33844;SDS011;20145;43.118;25.694;2023-06-22T07:46:22;9.63;;;7.28;;
33844;SDS011;20145;43.118;25.694;2023-06-22T07:48:48;8.82;;;7.07;;
33844;SDS011;20145;43.118;25.694;2023-06-22T07:51:13;7.93;;;7.18;;
33844;SDS011;20145;43.118;25.694;2023-06-22T07:53:40;14.00;;;10.18;;
33844;SDS011;20145;43.118;25.694;2023-06-22T07:56:07;14.27;;;10.13;;
33844;SDS011;20145;43.118;25.694;2023-06-22T07:58:35;16.70;;;9.25;;
33844;SDS011;20145;43.118;25.694;2023-06-22T08:01:01;8.43;;;7.63;;
33844;SDS011;20145;43.118;25.694;2023-06-22T08:03:26;9.18;;;8.27;;
33844;SDS011;20145;43.118;25.694;2023-06-22T08:05:52;10.20;;;8.57;;
33844;SDS011;20145;43.118;25.694;2023-06-22T08:08:17;12.80;;;9.05;;
33844;SDS011;20145;43.118;25.694;2023-06-22T08:10:43;12.35;;;9.63;;
33844;SDS011;20145;43.118;25.694;2023-06-22T08:13:09;13.93;;;9.52;;
33844;SDS011;20145;43.118;25.694;2023-06-22T08:15:35;15.50;;;8.05;;
33844;SDS011;20145;43.118;25.694;2023-06-22T08:18:01;15.38;;;9.13;;
33844;SDS011;20145;43.118;25.694;2023-06-22T08:20:26;9.25;;;8.40;;
33844;SDS011;20145;43.118;25.694;2023-06-22T08:22:53;10.10;;;9.10;;
33844;SDS011;20145;43.118;25.694;2023-06-22T08:25:19;9.70;;;8.38;;
33844;SDS011;20145;43.118;25.694;2023-06-22T08:27:46;8.75;;;7.97;;
33844;SDS011;20145;43.118;25.694;2023-06-22T08:30:13;8.93;;;7.88;;
33844;SDS011;20145;43.118;25.694;2023-06-22T08:32:39;10.25;;;7.93;;
33844;SDS011;20145;43.118;25.694;2023-06-22T08:35:05;8.32;;;7.53;;
33844;SDS011;20145;43.118;25.694;2023-06-22T08:37:34;11.30;;;7.38;;
33844;SDS011;20145;43.118;25.694;2023-06-22T08:40:03;11.88;;;10.82;;
33844;SDS011;20145;43.118;25.694;2023-06-22T08:42:33;9.68;;;7.28;;
33844;SDS011;20145;43.118;25.694;2023-06-22T08:44:59;8.00;;;7.18;;
33844;SDS011;20145;43.118;25.694;2023-06-22T08:47:26;11.73;;;7.22;;
33844;SDS011;20145;43.118;25.694;2023-06-22T08:49:53;8.10;;;7.38;;
33844;SDS011;20145;43.118;25.694;2023-06-22T08:52:32;7.80;;;7.10;;
33844;SDS011;20145;43.118;25.694;2023-06-22T08:55:16;7.93;;;7.22;;
33844;SDS011;20145;43.118;25.694;2023-06-22T09:09:41;8.95;;;8.05;;
33844;SDS011;20145;43.118;25.694;2023-06-22T09:18:28;14.60;;;7.10;;
33844;SDS011;20145;43.118;25.694;2023-06-22T09:33:06;8.65;;;7.70;;
33844;SDS011;20145;43.118;25.694;2023-06-22T09:35:41;9.60;;;7.70;;
33844;SDS011;20145;43.118;25.694;2023-06-22T09:40:35;7.85;;;7.10;;
33844;SDS011;20145;43.118;25.694;2023-06-22T09:46:26;11.38;;;6.95;;
33844;SDS011;20145;43.118;25.694;2023-06-22T09:49:00;8.57;;;6.78;;
33844;SDS011;20145;43.118;25.694;2023-06-22T09:54:44;7.10;;;6.45;;
33844;SDS011;20145;43.118;25.694;2023-06-22T09:57:18;7.50;;;6.68;;
33844;SDS011;20145;43.118;25.694;2023-06-22T09:59:44;7.88;;;6.80;;
33844;SDS011;20145;43.118;25.694;2023-06-22T10:05:34;10.93;;;7.43;;
33844;SDS011;20145;43.118;25.694;2023-06-22T10:11:10;9.48;;;6.57;;
33844;SDS011;20145;43.118;25.694;2023-06-22T10:13:37;9.38;;;6.07;;
33844;SDS011;20145;43.118;25.694;2023-06-22T10:16:03;9.85;;;6.63;;
33844;SDS011;20145;43.118;25.694;2023-06-22T10:27:35;9.35;;;8.35;;
33844;SDS011;20145;43.118;25.694;2023-06-22T10:39:31;6.85;;;6.25;;
33844;SDS011;20145;43.118;25.694;2023-06-22T10:42:11;7.80;;;7.03;;
33844;SDS011;20145;43.118;25.694;2023-06-22T10:47:10;7.93;;;6.90;;
33844;SDS011;20145;43.118;25.694;2023-06-22T10:49:37;11.82;;;8.75;;
33844;SDS011;20145;43.118;25.694;2023-06-22T10:52:06;8.45;;;6.60;;
33844;SDS011;20145;43.118;25.694;2023-06-22T10:54:32;8.48;;;7.53;;
33844;SDS011;20145;43.118;25.694;2023-06-22T10:56:59;7.38;;;6.75;;
33844;SDS011;20145;43.118;25.694;2023-06-22T10:59:25;6.63;;;6.03;;
33844;SDS011;20145;43.118;25.694;2023-06-22T11:01:52;9.70;;;7.03;;
33844;SDS011;20145;43.118;25.694;2023-06-22T11:04:18;9.57;;;5.75;;
33844;SDS011;20145;43.118;25.694;2023-06-22T11:06:46;7.28;;;5.75;;
33844;SDS011;20145;43.118;25.694;2023-06-22T11:09:12;6.55;;;5.55;;
33844;SDS011;20145;43.118;25.694;2023-06-22T11:11:43;6.95;;;5.97;;
33844;SDS011;20145;43.118;25.694;2023-06-22T11:14:15;6.43;;;5.82;;
33844;SDS011;20145;43.118;25.694;2023-06-22T11:16:42;6.88;;;6.35;;
33844;SDS011;20145;43.118;25.694;2023-06-22T11:19:07;6.72;;;6.10;;
33844;SDS011;20145;43.118;25.694;2023-06-22T11:21:34;7.35;;;5.97;;
33844;SDS011;20145;43.118;25.694;2023-06-22T11:24:01;7.80;;;5.75;;
33844;SDS011;20145;43.118;25.694;2023-06-22T11:26:27;10.73;;;6.03;;
33844;SDS011;20145;43.118;25.694;2023-06-22T11:28:54;7.15;;;6.45;;
33844;SDS011;20145;43.118;25.694;2023-06-22T11:31:23;7.72;;;6.55;;
33844;SDS011;20145;43.118;25.694;2023-06-22T11:33:49;7.63;;;6.95;;
33844;SDS011;20145;43.118;25.694;2023-06-22T11:36:20;6.30;;;5.80;;
33844;SDS011;20145;43.118;25.694;2023-06-22T12:04:05;7.35;;;5.63;;
33844;SDS011;20145;43.118;25.694;2023-06-22T12:18:43;7.18;;;5.40;;
33844;SDS011;20145;43.118;25.694;2023-06-22T12:27:30;5.72;;;4.93;;
33844;SDS011;20145;43.118;25.694;2023-06-22T12:41:41;6.32;;;5.82;;
33844;SDS011;20145;43.118;25.694;2023-06-22T12:46:55;6.90;;;5.97;;
33844;SDS011;20145;43.118;25.694;2023-06-22T12:49:21;6.00;;;5.47;;
33844;SDS011;20145;43.118;25.694;2023-06-22T12:51:50;5.72;;;5.22;;
33844;SDS011;20145;43.118;25.694;2023-06-22T12:57:17;6.53;;;5.63;;
33844;SDS011;20145;43.118;25.694;2023-06-22T12:59:48;6.05;;;5.55;;
33844;SDS011;20145;43.118;25.694;2023-06-22T13:08:44;6.03;;;5.32;;
33844;SDS011;20145;43.118;25.694;2023-06-22T13:11:17;8.30;;;5.80;;
33844;SDS011;20145;43.118;25.694;2023-06-22T13:13:54;6.45;;;5.82;;
33844;SDS011;20145;43.118;25.694;2023-06-22T13:19:49;6.85;;;5.55;;
33844;SDS011;20145;43.118;25.694;2023-06-22T13:22:33;6.10;;;5.57;;
33844;SDS011;20145;43.118;25.694;2023-06-22T13:25:14;9.65;;;6.88;;
33844;SDS011;20145;43.118;25.694;2023-06-22T13:27:44;7.90;;;6.00;;
33844;SDS011;20145;43.118;25.694;2023-06-22T13:30:09;6.15;;;5.55;;
33844;SDS011;20145;43.118;25.694;2023-06-22T13:32:35;7.38;;;6.68;;
33844;SDS011;20145;43.118;25.694;2023-06-22T13:35:01;6.18;;;5.68;;
33844;SDS011;20145;43.118;25.694;2023-06-22T13:37:27;8.38;;;5.47;;
33844;SDS011;20145;43.118;25.694;2023-06-22T13:39:52;6.80;;;6.20;;
33844;SDS011;20145;43.118;25.694;2023-06-22T13:42:18;12.57;;;6.60;;
33844;SDS011;20145;43.118;25.694;2023-06-22T13:44:43;6.68;;;6.05;;
33844;SDS011;20145;43.118;25.694;2023-06-22T13:47:09;7.50;;;6.80;;
33844;SDS011;20145;43.118;25.694;2023-06-22T13:49:35;8.75;;;7.95;;
33844;SDS011;20145;43.118;25.694;2023-06-22T13:52:00;7.95;;;6.18;;
33844;SDS011;20145;43.118;25.694;2023-06-22T13:54:36;6.40;;;5.80;;
33844;SDS011;20145;43.118;25.694;2023-06-22T14:00:23;6.22;;;5.63;;
33844;SDS011;20145;43.118;25.694;2023-06-22T14:02:56;6.65;;;5.35;;
33844;SDS011;20145;43.118;25.694;2023-06-22T14:05:28;6.20;;;5.60;;
33844;SDS011;20145;43.118;25.694;2023-06-22T14:08:00;6.40;;;5.85;;
33844;SDS011;20145;43.118;25.694;2023-06-22T14:20:05;5.93;;;5.35;;
33844;SDS011;20145;43.118;25.694;2023-06-22T14:22:34;8.48;;;6.43;;
33844;SDS011;20145;43.118;25.694;2023-06-22T14:30:47;6.40;;;5.82;;
33844;SDS011;20145;43.118;25.694;2023-06-22T14:33:13;6.53;;;5.97;;
33844;SDS011;20145;43.118;25.694;2023-06-22T14:35:38;13.35;;;6.55;;
33844;SDS011;20145;43.118;25.694;2023-06-22T14:38:04;7.97;;;5.53;;
33844;SDS011;20145;43.118;25.694;2023-06-22T14:40:29;6.57;;;5.40;;
33844;SDS011;20145;43.118;25.694;2023-06-22T14:42:55;6.45;;;5.90;;
33844;SDS011;20145;43.118;25.694;2023-06-22T14:45:24;7.65;;;5.90;;
33844;SDS011;20145;43.118;25.694;2023-06-22T14:47:50;7.20;;;6.50;;
33844;SDS011;20145;43.118;25.694;2023-06-22T14:50:16;6.78;;;6.15;;
33844;SDS011;20145;43.118;25.694;2023-06-22T14:52:41;7.75;;;6.40;;
33844;SDS011;20145;43.118;25.694;2023-06-22T14:55:07;9.55;;;6.25;;
33844;SDS011;20145;43.118;25.694;2023-06-22T14:57:33;7.18;;;5.72;;
33844;SDS011;20145;43.118;25.694;2023-06-22T14:59:58;7.10;;;6.22;;
33844;SDS011;20145;43.118;25.694;2023-06-22T15:02:26;7.53;;;6.15;;
33844;SDS011;20145;43.118;25.694;2023-06-22T15:04:52;7.78;;;6.20;;
33844;SDS011;20145;43.118;25.694;2023-06-22T15:07:18;7.68;;;6.10;;
33844;SDS011;20145;43.118;25.694;2023-06-22T15:09:44;10.05;;;6.93;;
33844;SDS011;20145;43.118;25.694;2023-06-22T15:12:10;7.20;;;6.50;;
33844;SDS011;20145;43.118;25.694;2023-06-22T15:14:37;7.25;;;6.18;;
33844;SDS011;20145;43.118;25.694;2023-06-22T15:17:04;8.38;;;6.10;;
33844;SDS011;20145;43.118;25.694;2023-06-22T15:19:31;6.95;;;6.28;;
33844;SDS011;20145;43.118;25.694;2023-06-22T15:21:56;6.53;;;6.03;;
33844;SDS011;20145;43.118;25.694;2023-06-22T15:24:22;6.90;;;5.60;;
33844;SDS011;20145;43.118;25.694;2023-06-22T15:26:47;6.50;;;5.85;;
33844;SDS011;20145;43.118;25.694;2023-06-22T15:29:13;7.22;;;6.38;;
33844;SDS011;20145;43.118;25.694;2023-06-22T15:31:38;6.60;;;5.85;;
33844;SDS011;20145;43.118;25.694;2023-06-22T15:34:04;6.95;;;6.00;;
33844;SDS011;20145;43.118;25.694;2023-06-22T15:36:29;7.63;;;6.75;;
33844;SDS011;20145;43.118;25.694;2023-06-22T15:38:55;6.47;;;5.72;;
33844;SDS011;20145;43.118;25.694;2023-06-22T15:41:20;7.20;;;6.03;;
33844;SDS011;20145;43.118;25.694;2023-06-22T15:43:48;6.85;;;6.18;;
33844;SDS011;20145;43.118;25.694;2023-06-22T15:46:13;8.13;;;5.95;;
33844;SDS011;20145;43.118;25.694;2023-06-22T15:48:42;8.02;;;5.90;;
33844;SDS011;20145;43.118;25.694;2023-06-22T15:51:08;8.00;;;6.18;;
33844;SDS011;20145;43.118;25.694;2023-06-22T15:53:34;7.28;;;6.30;;
33844;SDS011;20145;43.118;25.694;2023-06-22T15:55:59;6.43;;;5.78;;
33844;SDS011;20145;43.118;25.694;2023-06-22T15:58:25;8.88;;;6.10;;
33844;SDS011;20145;43.118;25.694;2023-06-22T16:00:50;6.45;;;5.95;;
33844;SDS011;20145;43.118;25.694;2023-06-22T16:03:16;7.30;;;6.50;;
33844;SDS011;20145;43.118;25.694;2023-06-22T16:05:42;6.55;;;5.93;;
33844;SDS011;20145;43.118;25.694;2023-06-22T16:08:11;6.70;;;6.05;;
33844;SDS011;20145;43.118;25.694;2023-06-22T16:10:38;7.05;;;6.45;;
33844;SDS011;20145;43.118;25.694;2023-06-22T16:13:04;8.77;;;6.47;;
33844;SDS011;20145;43.118;25.694;2023-06-22T16:15:30;6.35;;;5.85;;
33844;SDS011;20145;43.118;25.694;2023-06-22T16:17:55;10.05;;;6.82;;
33844;SDS011;20145;43.118;25.694;2023-06-22T16:20:21;12.00;;;7.18;;
33844;SDS011;20145;43.118;25.694;2023-06-22T16:22:46;7.68;;;7.00;;
33844;SDS011;20145;43.118;25.694;2023-06-22T16:25:13;9.23;;;7.70;;
33844;SDS011;20145;43.118;25.694;2023-06-22T16:27:38;13.05;;;8.20;;
33844;SDS011;20145;43.118;25.694;2023-06-22T16:30:07;7.68;;;6.82;;
33844;SDS011;20145;43.118;25.694;2023-06-22T16:32:33;8.85;;;7.40;;
33844;SDS011;20145;43.118;25.694;2023-06-22T16:34:59;9.50;;;7.63;;
33844;SDS011;20145;43.118;25.694;2023-06-22T16:37:24;11.93;;;8.30;;
33844;SDS011;20145;43.118;25.694;2023-06-22T16:39:50;8.70;;;7.85;;
33844;SDS011;20145;43.118;25.694;2023-06-22T16:42:15;8.45;;;7.60;;
33844;SDS011;20145;43.118;25.694;2023-06-22T16:44:42;8.35;;;7.45;;
33844;SDS011;20145;43.118;25.694;2023-06-22T16:47:07;12.80;;;8.40;;
33844;SDS011;20145;43.118;25.694;2023-06-22T16:49:33;11.85;;;7.40;;
33844;SDS011;20145;43.118;25.694;2023-06-22T16:52:01;7.55;;;6.85;;
33844;SDS011;20145;43.118;25.694;2023-06-22T16:54:29;8.35;;;7.40;;
33844;SDS011;20145;43.118;25.694;2023-06-22T16:56:55;9.02;;;7.45;;
33844;SDS011;20145;43.118;25.694;2023-06-22T16:59:24;8.95;;;7.47;;
33844;SDS011;20145;43.118;25.694;2023-06-22T17:01:51;8.00;;;7.20;;
33844;SDS011;20145;43.118;25.694;2023-06-22T17:04:20;8.30;;;7.47;;
33844;SDS011;20145;43.118;25.694;2023-06-22T17:06:54;8.93;;;7.80;;
33844;SDS011;20145;43.118;25.694;2023-06-22T17:09:24;11.68;;;7.90;;
33844;SDS011;20145;43.118;25.694;2023-06-22T17:11:51;7.93;;;7.15;;
33844;SDS011;20145;43.118;25.694;2023-06-22T17:14:18;8.98;;;7.85;;